sensor_id;sensor_type;location;lat;lon;timestamp;P1;durP1;ratioP1;P2;durP2;ratioP2
72676;SDS011;60755;51.374;10.662;2023-04-19T00:01:18;5.47;;;4.80;;
72676;SDS011;60755;51.374;10.662;2023-04-19T00:03:45;8.63;;;5.80;;
72676;SDS011;60755;51.374;10.662;2023-04-19T00:06:12;6.63;;;5.47;;
72676;SDS011;60755;51.374;10.662;2023-04-19T00:08:41;8.50;;;6.13;;
72676;SDS011;60755;51.374;10.662;2023-04-19T00:11:09;7.90;;;5.60;;
72676;SDS011;60755;51.374;10.662;2023-04-19T00:13:36;7.40;;;5.93;;
72676;SDS011;60755;51.374;10.662;2023-04-19T00:16:03;7.83;;;5.20;;
72676;SDS011;60755;51.374;10.662;2023-04-19T00:18:31;6.07;;;5.07;;
72676;SDS011;60755;51.374;10.662;2023-04-19T00:20:58;5.90;;;5.30;;
72676;SDS011;60755;51.374;10.662;2023-04-19T00:23:26;6.07;;;4.60;;
72676;SDS011;60755;51.374;10.662;2023-04-19T00:25:55;7.07;;;5.70;;
72676;SDS011;60755;51.374;10.662;2023-04-19T00:28:23;11.40;;;6.20;;
72676;SDS011;60755;51.374;10.662;2023-04-19T00:30:50;6.30;;;5.50;;
72676;SDS011;60755;51.374;10.662;2023-04-19T00:33:17;6.47;;;5.37;;
72676;SDS011;60755;51.374;10.662;2023-04-19T00:35:44;6.10;;;5.00;;
72676;SDS011;60755;51.374;10.662;2023-04-19T00:38:12;7.10;;;5.77;;
72676;SDS011;60755;51.374;10.662;2023-04-19T00:40:39;6.80;;;5.00;;
72676;SDS011;60755;51.374;10.662;2023-04-19T00:43:07;5.27;;;4.70;;
72676;SDS011;60755;51.374;10.662;2023-04-19T00:45:34;5.93;;;5.00;;
72676;SDS011;60755;51.374;10.662;2023-04-19T00:48:02;5.80;;;5.13;;
72676;SDS011;60755;51.374;10.662;2023-04-19T00:50:29;6.50;;;5.17;;
72676;SDS011;60755;51.374;10.662;2023-04-19T00:52:56;7.10;;;5.90;;
72676;SDS011;60755;51.374;10.662;2023-04-19T00:55:24;5.93;;;5.33;;
72676;SDS011;60755;51.374;10.662;2023-04-19T00:57:52;6.07;;;5.13;;
72676;SDS011;60755;51.374;10.662;2023-04-19T01:00:21;5.43;;;4.93;;
72676;SDS011;60755;51.374;10.662;2023-04-19T01:02:49;6.80;;;5.40;;
72676;SDS011;60755;51.374;10.662;2023-04-19T01:05:17;5.30;;;4.80;;
72676;SDS011;60755;51.374;10.662;2023-04-19T01:07:44;5.70;;;4.90;;
72676;SDS011;60755;51.374;10.662;2023-04-19T01:10:13;5.70;;;4.90;;
72676;SDS011;60755;51.374;10.662;2023-04-19T01:12:40;5.03;;;4.53;;
72676;SDS011;60755;51.374;10.662;2023-04-19T01:15:09;5.70;;;5.07;;
72676;SDS011;60755;51.374;10.662;2023-04-19T01:17:38;5.63;;;4.90;;
72676;SDS011;60755;51.374;10.662;2023-04-19T01:20:05;7.27;;;5.30;;
72676;SDS011;60755;51.374;10.662;2023-04-19T01:22:35;6.43;;;5.07;;
72676;SDS011;60755;51.374;10.662;2023-04-19T01:25:03;6.00;;;5.50;;
72676;SDS011;60755;51.374;10.662;2023-04-19T01:27:31;7.57;;;5.50;;
72676;SDS011;60755;51.374;10.662;2023-04-19T01:29:58;5.77;;;5.13;;
72676;SDS011;60755;51.374;10.662;2023-04-19T01:32:25;6.73;;;5.50;;
72676;SDS011;60755;51.374;10.662;2023-04-19T01:34:54;7.00;;;5.50;;
72676;SDS011;60755;51.374;10.662;2023-04-19T01:37:21;6.17;;;5.57;;
72676;SDS011;60755;51.374;10.662;2023-04-19T01:39:50;6.97;;;6.23;;
72676;SDS011;60755;51.374;10.662;2023-04-19T01:42:17;8.03;;;5.90;;
72676;SDS011;60755;51.374;10.662;2023-04-19T01:44:44;8.73;;;6.47;;
72676;SDS011;60755;51.374;10.662;2023-04-19T01:47:10;7.63;;;5.87;;
72676;SDS011;60755;51.374;10.662;2023-04-19T01:49:38;6.57;;;5.60;;
72676;SDS011;60755;51.374;10.662;2023-04-19T01:52:05;8.80;;;6.20;;
72676;SDS011;60755;51.374;10.662;2023-04-19T01:54:32;7.33;;;6.50;;
72676;SDS011;60755;51.374;10.662;2023-04-19T01:57:01;8.20;;;6.40;;
72676;SDS011;60755;51.374;10.662;2023-04-19T01:59:28;8.50;;;6.47;;
72676;SDS011;60755;51.374;10.662;2023-04-19T02:01:55;8.00;;;6.30;;
72676;SDS011;60755;51.374;10.662;2023-04-19T02:04:23;7.63;;;6.00;;
72676;SDS011;60755;51.374;10.662;2023-04-19T02:06:50;7.70;;;6.20;;
72676;SDS011;60755;51.374;10.662;2023-04-19T02:09:17;8.87;;;6.67;;
72676;SDS011;60755;51.374;10.662;2023-04-19T02:11:45;9.43;;;6.37;;
72676;SDS011;60755;51.374;10.662;2023-04-19T02:14:14;8.07;;;7.13;;
72676;SDS011;60755;51.374;10.662;2023-04-19T02:16:41;9.40;;;6.80;;
72676;SDS011;60755;51.374;10.662;2023-04-19T02:19:08;12.13;;;7.93;;
72676;SDS011;60755;51.374;10.662;2023-04-19T02:21:35;8.67;;;6.57;;
72676;SDS011;60755;51.374;10.662;2023-04-19T02:24:02;8.53;;;6.90;;
72676;SDS011;60755;51.374;10.662;2023-04-19T02:26:30;7.50;;;6.60;;
72676;SDS011;60755;51.374;10.662;2023-04-19T02:28:56;9.43;;;7.17;;
72676;SDS011;60755;51.374;10.662;2023-04-19T02:31:25;7.60;;;6.67;;
72676;SDS011;60755;51.374;10.662;2023-04-19T02:33:52;9.90;;;6.83;;
72676;SDS011;60755;51.374;10.662;2023-04-19T02:36:19;9.70;;;7.47;;
72676;SDS011;60755;51.374;10.662;2023-04-19T02:38:46;8.03;;;6.37;;
72676;SDS011;60755;51.374;10.662;2023-04-19T02:41:12;9.37;;;7.33;;
72676;SDS011;60755;51.374;10.662;2023-04-19T02:43:40;9.20;;;7.50;;
72676;SDS011;60755;51.374;10.662;2023-04-19T02:46:07;10.60;;;6.43;;
72676;SDS011;60755;51.374;10.662;2023-04-19T02:48:35;11.17;;;6.60;;
72676;SDS011;60755;51.374;10.662;2023-04-19T02:51:02;13.93;;;7.33;;
72676;SDS011;60755;51.374;10.662;2023-04-19T02:53:32;10.83;;;7.20;;
72676;SDS011;60755;51.374;10.662;2023-04-19T02:55:59;8.50;;;6.90;;
72676;SDS011;60755;51.374;10.662;2023-04-19T02:58:26;10.37;;;6.87;;
72676;SDS011;60755;51.374;10.662;2023-04-19T03:01:04;10.20;;;6.67;;
72676;SDS011;60755;51.374;10.662;2023-04-19T03:03:32;10.43;;;7.50;;
72676;SDS011;60755;51.374;10.662;2023-04-19T03:06:00;13.87;;;7.07;;
72676;SDS011;60755;51.374;10.662;2023-04-19T03:08:28;10.27;;;7.23;;
72676;SDS011;60755;51.374;10.662;2023-04-19T03:10:55;10.53;;;6.73;;
72676;SDS011;60755;51.374;10.662;2023-04-19T03:13:22;9.33;;;6.83;;
72676;SDS011;60755;51.374;10.662;2023-04-19T03:15:49;11.30;;;8.07;;
72676;SDS011;60755;51.374;10.662;2023-04-19T03:18:20;12.27;;;8.00;;
72676;SDS011;60755;51.374;10.662;2023-04-19T03:20:47;8.63;;;6.30;;
72676;SDS011;60755;51.374;10.662;2023-04-19T03:23:16;11.57;;;7.47;;
72676;SDS011;60755;51.374;10.662;2023-04-19T03:25:44;10.53;;;7.47;;
72676;SDS011;60755;51.374;10.662;2023-04-19T03:28:20;12.73;;;6.40;;
72676;SDS011;60755;51.374;10.662;2023-04-19T03:31:19;9.90;;;6.77;;
72676;SDS011;60755;51.374;10.662;2023-04-19T03:33:49;13.80;;;7.83;;
72676;SDS011;60755;51.374;10.662;2023-04-19T03:36:17;9.63;;;7.33;;
72676;SDS011;60755;51.374;10.662;2023-04-19T03:38:47;10.00;;;6.30;;
72676;SDS011;60755;51.374;10.662;2023-04-19T03:41:19;14.83;;;7.67;;
72676;SDS011;60755;51.374;10.662;2023-04-19T03:43:50;10.70;;;6.90;;
72676;SDS011;60755;51.374;10.662;2023-04-19T03:46:18;9.03;;;6.93;;
72676;SDS011;60755;51.374;10.662;2023-04-19T03:48:45;12.53;;;7.13;;
72676;SDS011;60755;51.374;10.662;2023-04-19T03:51:13;11.13;;;6.57;;
72676;SDS011;60755;51.374;10.662;2023-04-19T03:53:40;11.57;;;6.20;;
72676;SDS011;60755;51.374;10.662;2023-04-19T03:56:08;14.00;;;7.50;;
72676;SDS011;60755;51.374;10.662;2023-04-19T03:58:36;11.20;;;6.53;;
72676;SDS011;60755;51.374;10.662;2023-04-19T04:01:06;11.27;;;5.83;;
72676;SDS011;60755;51.374;10.662;2023-04-19T04:03:33;9.63;;;5.33;;
72676;SDS011;60755;51.374;10.662;2023-04-19T04:06:02;8.90;;;5.20;;
72676;SDS011;60755;51.374;10.662;2023-04-19T04:08:30;7.70;;;5.80;;
72676;SDS011;60755;51.374;10.662;2023-04-19T04:10:56;5.90;;;5.33;;
72676;SDS011;60755;51.374;10.662;2023-04-19T04:13:25;6.27;;;5.10;;
72676;SDS011;60755;51.374;10.662;2023-04-19T04:16:04;16.00;;;9.37;;
72676;SDS011;60755;51.374;10.662;2023-04-19T04:18:32;6.80;;;5.40;;
72676;SDS011;60755;51.374;10.662;2023-04-19T04:21:01;11.97;;;6.20;;
72676;SDS011;60755;51.374;10.662;2023-04-19T04:23:29;13.07;;;7.67;;
72676;SDS011;60755;51.374;10.662;2023-04-19T04:25:57;9.30;;;5.80;;
72676;SDS011;60755;51.374;10.662;2023-04-19T04:28:33;7.10;;;5.93;;
72676;SDS011;60755;51.374;10.662;2023-04-19T04:31:00;7.03;;;5.27;;
72676;SDS011;60755;51.374;10.662;2023-04-19T04:33:30;11.20;;;6.17;;
72676;SDS011;60755;51.374;10.662;2023-04-19T04:35:58;9.97;;;6.60;;
72676;SDS011;60755;51.374;10.662;2023-04-19T04:38:30;6.93;;;4.77;;
72676;SDS011;60755;51.374;10.662;2023-04-19T04:40:57;5.60;;;4.30;;
72676;SDS011;60755;51.374;10.662;2023-04-19T04:43:24;5.57;;;4.77;;
72676;SDS011;60755;51.374;10.662;2023-04-19T04:45:55;5.83;;;4.90;;
72676;SDS011;60755;51.374;10.662;2023-04-19T04:48:25;4.63;;;3.87;;
72676;SDS011;60755;51.374;10.662;2023-04-19T04:50:52;4.43;;;4.00;;
72676;SDS011;60755;51.374;10.662;2023-04-19T04:53:19;4.77;;;3.57;;
72676;SDS011;60755;51.374;10.662;2023-04-19T04:55:45;4.43;;;3.53;;
72676;SDS011;60755;51.374;10.662;2023-04-19T04:58:13;4.17;;;3.70;;
72676;SDS011;60755;51.374;10.662;2023-04-19T05:01:03;9.27;;;5.67;;
72676;SDS011;60755;51.374;10.662;2023-04-19T05:03:35;3.70;;;3.40;;
72676;SDS011;60755;51.374;10.662;2023-04-19T05:06:05;8.47;;;3.00;;
72676;SDS011;60755;51.374;10.662;2023-04-19T05:08:33;3.40;;;3.20;;
72676;SDS011;60755;51.374;10.662;2023-04-19T05:11:23;6.90;;;5.13;;
72676;SDS011;60755;51.374;10.662;2023-04-19T05:13:51;5.43;;;4.30;;
72676;SDS011;60755;51.374;10.662;2023-04-19T05:16:20;5.90;;;3.93;;
72676;SDS011;60755;51.374;10.662;2023-04-19T05:18:48;4.67;;;3.97;;
72676;SDS011;60755;51.374;10.662;2023-04-19T05:21:15;5.47;;;3.50;;
72676;SDS011;60755;51.374;10.662;2023-04-19T05:23:42;8.27;;;4.03;;
72676;SDS011;60755;51.374;10.662;2023-04-19T05:26:12;2.90;;;2.73;;
72676;SDS011;60755;51.374;10.662;2023-04-19T05:28:45;3.27;;;3.03;;
72676;SDS011;60755;51.374;10.662;2023-04-19T05:31:34;3.47;;;3.17;;
72676;SDS011;60755;51.374;10.662;2023-04-19T05:34:28;3.67;;;3.37;;
72676;SDS011;60755;51.374;10.662;2023-04-19T05:36:56;3.57;;;3.27;;
72676;SDS011;60755;51.374;10.662;2023-04-19T05:39:24;2.80;;;2.60;;
72676;SDS011;60755;51.374;10.662;2023-04-19T05:41:51;3.30;;;2.90;;
72676;SDS011;60755;51.374;10.662;2023-04-19T05:44:18;7.90;;;3.17;;
72676;SDS011;60755;51.374;10.662;2023-04-19T05:46:46;4.83;;;3.50;;
72676;SDS011;60755;51.374;10.662;2023-04-19T05:49:19;3.57;;;3.17;;
72676;SDS011;60755;51.374;10.662;2023-04-19T05:52:00;4.97;;;3.23;;
72676;SDS011;60755;51.374;10.662;2023-04-19T05:54:49;3.30;;;3.00;;
72676;SDS011;60755;51.374;10.662;2023-04-19T05:57:16;3.23;;;2.70;;
72676;SDS011;60755;51.374;10.662;2023-04-19T05:59:43;3.07;;;2.83;;
72676;SDS011;60755;51.374;10.662;2023-04-19T06:02:14;3.03;;;2.80;;
72676;SDS011;60755;51.374;10.662;2023-04-19T06:04:41;2.90;;;2.70;;
72676;SDS011;60755;51.374;10.662;2023-04-19T06:07:09;2.90;;;2.70;;
72676;SDS011;60755;51.374;10.662;2023-04-19T06:09:38;3.20;;;3.00;;
72676;SDS011;60755;51.374;10.662;2023-04-19T06:12:06;3.30;;;3.00;;
72676;SDS011;60755;51.374;10.662;2023-04-19T06:14:33;3.93;;;3.13;;
72676;SDS011;60755;51.374;10.662;2023-04-19T06:17:00;3.37;;;3.07;;
72676;SDS011;60755;51.374;10.662;2023-04-19T06:19:29;3.87;;;2.87;;
72676;SDS011;60755;51.374;10.662;2023-04-19T06:21:58;3.83;;;3.20;;
72676;SDS011;60755;51.374;10.662;2023-04-19T06:24:25;6.60;;;3.27;;
72676;SDS011;60755;51.374;10.662;2023-04-19T06:26:52;3.10;;;2.90;;
72676;SDS011;60755;51.374;10.662;2023-04-19T06:29:19;5.47;;;4.07;;
72676;SDS011;60755;51.374;10.662;2023-04-19T06:31:48;3.17;;;2.97;;
72676;SDS011;60755;51.374;10.662;2023-04-19T06:34:15;3.70;;;3.10;;
72676;SDS011;60755;51.374;10.662;2023-04-19T06:36:43;3.97;;;3.63;;
72676;SDS011;60755;51.374;10.662;2023-04-19T06:39:10;3.60;;;3.30;;
72676;SDS011;60755;51.374;10.662;2023-04-19T06:41:37;3.10;;;2.80;;
72676;SDS011;60755;51.374;10.662;2023-04-19T06:44:04;3.53;;;2.90;;
72676;SDS011;60755;51.374;10.662;2023-04-19T06:46:31;2.70;;;2.50;;
72676;SDS011;60755;51.374;10.662;2023-04-19T06:48:58;3.83;;;2.60;;
72676;SDS011;60755;51.374;10.662;2023-04-19T06:51:25;2.80;;;2.60;;
72676;SDS011;60755;51.374;10.662;2023-04-19T06:53:53;4.00;;;3.20;;
72676;SDS011;60755;51.374;10.662;2023-04-19T06:59:06;8.83;;;5.10;;
72676;SDS011;60755;51.374;10.662;2023-04-19T07:01:33;10.33;;;3.67;;
72676;SDS011;60755;51.374;10.662;2023-04-19T07:04:00;3.23;;;3.03;;
72676;SDS011;60755;51.374;10.662;2023-04-19T07:06:27;3.37;;;2.97;;
72676;SDS011;60755;51.374;10.662;2023-04-19T07:08:55;3.43;;;3.13;;
72676;SDS011;60755;51.374;10.662;2023-04-19T07:11:22;4.00;;;2.80;;
72676;SDS011;60755;51.374;10.662;2023-04-19T07:13:49;8.57;;;6.30;;
72676;SDS011;60755;51.374;10.662;2023-04-19T07:16:16;3.70;;;3.40;;
72676;SDS011;60755;51.374;10.662;2023-04-19T07:18:43;6.90;;;5.77;;
72676;SDS011;60755;51.374;10.662;2023-04-19T07:21:10;3.53;;;3.23;;
72676;SDS011;60755;51.374;10.662;2023-04-19T07:23:37;4.43;;;4.03;;
72676;SDS011;60755;51.374;10.662;2023-04-19T07:26:05;5.47;;;4.90;;
72676;SDS011;60755;51.374;10.662;2023-04-19T07:28:32;5.30;;;2.97;;
72676;SDS011;60755;51.374;10.662;2023-04-19T07:31:02;6.23;;;4.70;;
72676;SDS011;60755;51.374;10.662;2023-04-19T07:33:29;9.37;;;5.27;;
72676;SDS011;60755;51.374;10.662;2023-04-19T07:35:56;3.17;;;2.87;;
72676;SDS011;60755;51.374;10.662;2023-04-19T07:38:23;2.90;;;2.70;;
72676;SDS011;60755;51.374;10.662;2023-04-19T07:40:51;3.17;;;2.70;;
72676;SDS011;60755;51.374;10.662;2023-04-19T07:43:19;4.63;;;3.17;;
72676;SDS011;60755;51.374;10.662;2023-04-19T07:45:46;2.60;;;2.50;;
72676;SDS011;60755;51.374;10.662;2023-04-19T07:48:13;5.90;;;4.53;;
72676;SDS011;60755;51.374;10.662;2023-04-19T07:50:40;4.10;;;3.70;;
72676;SDS011;60755;51.374;10.662;2023-04-19T07:53:07;5.40;;;2.90;;
72676;SDS011;60755;51.374;10.662;2023-04-19T07:55:34;3.07;;;2.87;;
72676;SDS011;60755;51.374;10.662;2023-04-19T07:58:01;4.73;;;3.60;;
72676;SDS011;60755;51.374;10.662;2023-04-19T08:00:29;3.13;;;2.77;;
72676;SDS011;60755;51.374;10.662;2023-04-19T08:02:57;3.47;;;3.13;;
72676;SDS011;60755;51.374;10.662;2023-04-19T08:05:24;2.93;;;2.70;;
72676;SDS011;60755;51.374;10.662;2023-04-19T08:07:51;3.57;;;3.10;;
72676;SDS011;60755;51.374;10.662;2023-04-19T08:10:18;3.30;;;3.00;;
72676;SDS011;60755;51.374;10.662;2023-04-19T08:12:45;3.47;;;3.20;;
72676;SDS011;60755;51.374;10.662;2023-04-19T08:15:12;4.63;;;3.07;;
72676;SDS011;60755;51.374;10.662;2023-04-19T08:17:41;5.50;;;4.00;;
72676;SDS011;60755;51.374;10.662;2023-04-19T08:20:08;3.13;;;2.90;;
72676;SDS011;60755;51.374;10.662;2023-04-19T08:22:37;3.43;;;3.13;;
72676;SDS011;60755;51.374;10.662;2023-04-19T08:25:05;4.00;;;2.73;;
72676;SDS011;60755;51.374;10.662;2023-04-19T08:27:34;6.57;;;3.90;;
72676;SDS011;60755;51.374;10.662;2023-04-19T08:30:01;7.40;;;3.87;;
72676;SDS011;60755;51.374;10.662;2023-04-19T08:32:28;3.20;;;2.83;;
72676;SDS011;60755;51.374;10.662;2023-04-19T08:34:56;6.20;;;3.77;;
72676;SDS011;60755;51.374;10.662;2023-04-19T08:37:25;11.80;;;5.57;;
72676;SDS011;60755;51.374;10.662;2023-04-19T08:39:52;3.50;;;3.20;;
72676;SDS011;60755;51.374;10.662;2023-04-19T08:42:19;3.80;;;3.00;;
72676;SDS011;60755;51.374;10.662;2023-04-19T08:44:46;3.20;;;2.50;;
72676;SDS011;60755;51.374;10.662;2023-04-19T08:47:14;3.13;;;2.83;;
72676;SDS011;60755;51.374;10.662;2023-04-19T08:49:42;5.07;;;3.00;;
72676;SDS011;60755;51.374;10.662;2023-04-19T08:52:12;2.93;;;2.53;;
72676;SDS011;60755;51.374;10.662;2023-04-19T08:54:40;2.97;;;2.60;;
72676;SDS011;60755;51.374;10.662;2023-04-19T08:57:08;3.20;;;3.00;;
72676;SDS011;60755;51.374;10.662;2023-04-19T08:59:36;3.33;;;2.50;;
72676;SDS011;60755;51.374;10.662;2023-04-19T09:02:04;2.70;;;2.50;;
72676;SDS011;60755;51.374;10.662;2023-04-19T09:04:31;4.53;;;3.03;;
72676;SDS011;60755;51.374;10.662;2023-04-19T09:06:58;3.70;;;2.87;;
72676;SDS011;60755;51.374;10.662;2023-04-19T09:09:27;3.37;;;2.77;;
72676;SDS011;60755;51.374;10.662;2023-04-19T09:11:55;3.23;;;3.00;;
72676;SDS011;60755;51.374;10.662;2023-04-19T09:14:24;4.13;;;3.50;;
72676;SDS011;60755;51.374;10.662;2023-04-19T09:16:52;4.73;;;3.13;;
72676;SDS011;60755;51.374;10.662;2023-04-19T09:19:19;3.30;;;3.10;;
72676;SDS011;60755;51.374;10.662;2023-04-19T09:21:46;3.60;;;2.73;;
72676;SDS011;60755;51.374;10.662;2023-04-19T09:24:16;6.10;;;2.83;;
72676;SDS011;60755;51.374;10.662;2023-04-19T09:26:53;3.37;;;3.07;;
72676;SDS011;60755;51.374;10.662;2023-04-19T09:29:22;3.43;;;3.13;;
72676;SDS011;60755;51.374;10.662;2023-04-19T09:31:55;6.87;;;3.93;;
72676;SDS011;60755;51.374;10.662;2023-04-19T09:34:24;4.50;;;3.30;;
72676;SDS011;60755;51.374;10.662;2023-04-19T09:36:53;4.13;;;3.50;;
72676;SDS011;60755;51.374;10.662;2023-04-19T09:39:29;3.70;;;3.40;;
72676;SDS011;60755;51.374;10.662;2023-04-19T09:41:59;3.47;;;3.20;;
72676;SDS011;60755;51.374;10.662;2023-04-19T09:44:26;3.60;;;3.13;;
72676;SDS011;60755;51.374;10.662;2023-04-19T09:46:53;8.30;;;3.70;;
72676;SDS011;60755;51.374;10.662;2023-04-19T09:49:21;5.20;;;3.93;;
72676;SDS011;60755;51.374;10.662;2023-04-19T09:51:49;4.30;;;3.70;;
72676;SDS011;60755;51.374;10.662;2023-04-19T09:54:18;3.90;;;2.90;;
72676;SDS011;60755;51.374;10.662;2023-04-19T09:56:46;4.20;;;3.90;;
72676;SDS011;60755;51.374;10.662;2023-04-19T09:59:14;4.10;;;3.80;;
72676;SDS011;60755;51.374;10.662;2023-04-19T10:01:42;5.33;;;3.27;;
72676;SDS011;60755;51.374;10.662;2023-04-19T10:04:11;5.10;;;3.50;;
72676;SDS011;60755;51.374;10.662;2023-04-19T10:06:46;5.70;;;3.53;;
72676;SDS011;60755;51.374;10.662;2023-04-19T10:09:15;4.03;;;3.67;;
72676;SDS011;60755;51.374;10.662;2023-04-19T10:11:46;3.97;;;3.67;;
72676;SDS011;60755;51.374;10.662;2023-04-19T10:14:18;4.63;;;4.07;;
72676;SDS011;60755;51.374;10.662;2023-04-19T10:16:49;6.40;;;3.37;;
72676;SDS011;60755;51.374;10.662;2023-04-19T10:19:17;3.50;;;3.30;;
72676;SDS011;60755;51.374;10.662;2023-04-19T10:21:47;3.63;;;3.33;;
72676;SDS011;60755;51.374;10.662;2023-04-19T10:24:16;4.00;;;3.70;;
72676;SDS011;60755;51.374;10.662;2023-04-19T10:27:04;3.60;;;3.30;;
72676;SDS011;60755;51.374;10.662;2023-04-19T10:29:55;3.97;;;2.97;;
72676;SDS011;60755;51.374;10.662;2023-04-19T10:32:23;4.50;;;3.60;;
72676;SDS011;60755;51.374;10.662;2023-04-19T10:34:53;5.57;;;3.67;;
72676;SDS011;60755;51.374;10.662;2023-04-19T10:37:21;7.07;;;3.50;;
72676;SDS011;60755;51.374;10.662;2023-04-19T10:39:49;3.83;;;3.53;;
72676;SDS011;60755;51.374;10.662;2023-04-19T10:42:17;5.57;;;4.23;;
72676;SDS011;60755;51.374;10.662;2023-04-19T10:47:50;6.07;;;4.40;;
72676;SDS011;60755;51.374;10.662;2023-04-19T10:50:18;4.53;;;4.13;;
72676;SDS011;60755;51.374;10.662;2023-04-19T10:52:45;4.50;;;4.10;;
72676;SDS011;60755;51.374;10.662;2023-04-19T10:55:14;4.00;;;3.47;;
72676;SDS011;60755;51.374;10.662;2023-04-19T10:58:03;5.60;;;4.73;;
72676;SDS011;60755;51.374;10.662;2023-04-19T11:00:31;5.03;;;4.10;;
72676;SDS011;60755;51.374;10.662;2023-04-19T11:03:50;5.07;;;3.93;;
72676;SDS011;60755;51.374;10.662;2023-04-19T11:06:14;4.07;;;3.73;;
72676;SDS011;60755;51.374;10.662;2023-04-19T11:08:42;5.33;;;4.03;;
72676;SDS011;60755;51.374;10.662;2023-04-19T11:11:10;5.30;;;3.97;;
72676;SDS011;60755;51.374;10.662;2023-04-19T11:13:40;6.20;;;4.13;;
72676;SDS011;60755;51.374;10.662;2023-04-19T11:16:08;4.87;;;4.10;;
72676;SDS011;60755;51.374;10.662;2023-04-19T11:18:37;5.77;;;3.47;;
72676;SDS011;60755;51.374;10.662;2023-04-19T11:21:04;5.10;;;3.60;;
72676;SDS011;60755;51.374;10.662;2023-04-19T11:23:32;3.83;;;3.57;;
72676;SDS011;60755;51.374;10.662;2023-04-19T11:25:59;3.57;;;3.27;;
72676;SDS011;60755;51.374;10.662;2023-04-19T11:28:26;5.10;;;4.40;;
72676;SDS011;60755;51.374;10.662;2023-04-19T11:30:53;6.50;;;3.63;;
72676;SDS011;60755;51.374;10.662;2023-04-19T11:33:22;4.07;;;3.67;;
72676;SDS011;60755;51.374;10.662;2023-04-19T11:35:51;4.90;;;3.47;;
72676;SDS011;60755;51.374;10.662;2023-04-19T11:38:19;3.87;;;3.20;;
72676;SDS011;60755;51.374;10.662;2023-04-19T11:40:46;4.17;;;3.47;;
72676;SDS011;60755;51.374;10.662;2023-04-19T11:43:13;4.20;;;3.67;;
72676;SDS011;60755;51.374;10.662;2023-04-19T11:45:40;4.03;;;3.67;;
72676;SDS011;60755;51.374;10.662;2023-04-19T11:48:12;3.97;;;3.43;;
72676;SDS011;60755;51.374;10.662;2023-04-19T11:50:40;6.83;;;3.73;;
72676;SDS011;60755;51.374;10.662;2023-04-19T11:53:10;5.57;;;3.70;;
72676;SDS011;60755;51.374;10.662;2023-04-19T11:55:41;5.00;;;3.80;;
72676;SDS011;60755;51.374;10.662;2023-04-19T11:58:15;4.83;;;3.00;;
72676;SDS011;60755;51.374;10.662;2023-04-19T12:00:49;5.03;;;4.27;;
72676;SDS011;60755;51.374;10.662;2023-04-19T12:03:19;3.87;;;3.57;;
72676;SDS011;60755;51.374;10.662;2023-04-19T12:05:51;3.90;;;3.10;;
72676;SDS011;60755;51.374;10.662;2023-04-19T12:08:29;3.70;;;3.40;;
72676;SDS011;60755;51.374;10.662;2023-04-19T12:10:58;4.70;;;3.23;;
72676;SDS011;60755;51.374;10.662;2023-04-19T12:13:25;4.33;;;3.50;;
72676;SDS011;60755;51.374;10.662;2023-04-19T12:15:52;4.40;;;3.70;;
72676;SDS011;60755;51.374;10.662;2023-04-19T12:18:20;5.27;;;3.80;;
72676;SDS011;60755;51.374;10.662;2023-04-19T12:20:48;3.83;;;3.53;;
72676;SDS011;60755;51.374;10.662;2023-04-19T12:23:17;4.13;;;3.73;;
72676;SDS011;60755;51.374;10.662;2023-04-19T12:25:47;4.27;;;3.87;;
72676;SDS011;60755;51.374;10.662;2023-04-19T12:28:15;3.57;;;3.37;;
72676;SDS011;60755;51.374;10.662;2023-04-19T12:30:42;9.02;;;3.83;;
72676;SDS011;60755;51.374;10.662;2023-04-19T12:33:09;4.00;;;3.60;;
72676;SDS011;60755;51.374;10.662;2023-04-19T12:35:37;4.87;;;3.40;;
72676;SDS011;60755;51.374;10.662;2023-04-19T12:38:04;4.40;;;3.43;;
72676;SDS011;60755;51.374;10.662;2023-04-19T12:40:31;3.67;;;3.20;;
72676;SDS011;60755;51.374;10.662;2023-04-19T12:43:00;3.73;;;3.37;;
72676;SDS011;60755;51.374;10.662;2023-04-19T12:45:28;4.90;;;3.20;;
72676;SDS011;60755;51.374;10.662;2023-04-19T12:47:55;3.80;;;3.50;;
72676;SDS011;60755;51.374;10.662;2023-04-19T12:50:22;4.07;;;3.70;;
72676;SDS011;60755;51.374;10.662;2023-04-19T12:52:50;6.53;;;3.90;;
72676;SDS011;60755;51.374;10.662;2023-04-19T12:55:18;3.30;;;3.10;;
72676;SDS011;60755;51.374;10.662;2023-04-19T12:57:45;4.83;;;3.97;;
72676;SDS011;60755;51.374;10.662;2023-04-19T13:00:15;5.17;;;4.60;;
72676;SDS011;60755;51.374;10.662;2023-04-19T13:02:42;7.47;;;4.60;;
72676;SDS011;60755;51.374;10.662;2023-04-19T13:05:10;6.00;;;5.03;;
72676;SDS011;60755;51.374;10.662;2023-04-19T13:07:37;4.07;;;3.67;;
72676;SDS011;60755;51.374;10.662;2023-04-19T13:10:05;3.77;;;3.47;;
72676;SDS011;60755;51.374;10.662;2023-04-19T13:12:33;3.60;;;3.30;;
72676;SDS011;60755;51.374;10.662;2023-04-19T13:15:00;6.00;;;3.90;;
72676;SDS011;60755;51.374;10.662;2023-04-19T13:17:29;3.53;;;3.33;;
72676;SDS011;60755;51.374;10.662;2023-04-19T13:19:56;6.87;;;5.23;;
72676;SDS011;60755;51.374;10.662;2023-04-19T13:22:23;3.47;;;3.27;;
72676;SDS011;60755;51.374;10.662;2023-04-19T13:24:52;5.43;;;4.30;;
72676;SDS011;60755;51.374;10.662;2023-04-19T13:27:19;7.87;;;5.10;;
72676;SDS011;60755;51.374;10.662;2023-04-19T13:29:46;7.53;;;4.60;;
72676;SDS011;60755;51.374;10.662;2023-04-19T13:32:13;4.07;;;3.13;;
72676;SDS011;60755;51.374;10.662;2023-04-19T13:34:42;5.60;;;3.20;;
72676;SDS011;60755;51.374;10.662;2023-04-19T13:37:10;4.40;;;3.90;;
72676;SDS011;60755;51.374;10.662;2023-04-19T13:39:37;3.83;;;3.50;;
72676;SDS011;60755;51.374;10.662;2023-04-19T13:42:04;3.97;;;3.63;;
72676;SDS011;60755;51.374;10.662;2023-04-19T13:44:32;12.83;;;6.93;;
72676;SDS011;60755;51.374;10.662;2023-04-19T13:46:59;5.00;;;3.90;;
72676;SDS011;60755;51.374;10.662;2023-04-19T13:49:26;8.57;;;7.67;;
72676;SDS011;60755;51.374;10.662;2023-04-19T13:51:55;5.50;;;4.73;;
72676;SDS011;60755;51.374;10.662;2023-04-19T13:54:22;5.57;;;4.83;;
72676;SDS011;60755;51.374;10.662;2023-04-19T13:56:49;4.70;;;4.07;;
72676;SDS011;60755;51.374;10.662;2023-04-19T13:59:17;3.73;;;3.43;;
72676;SDS011;60755;51.374;10.662;2023-04-19T14:01:44;11.23;;;5.80;;
72676;SDS011;60755;51.374;10.662;2023-04-19T14:04:11;9.30;;;5.33;;
72676;SDS011;60755;51.374;10.662;2023-04-19T14:06:38;8.60;;;4.60;;
72676;SDS011;60755;51.374;10.662;2023-04-19T14:09:07;6.00;;;5.43;;
72676;SDS011;60755;51.374;10.662;2023-04-19T14:11:34;5.40;;;4.40;;
72676;SDS011;60755;51.374;10.662;2023-04-19T14:14:02;10.77;;;5.80;;
72676;SDS011;60755;51.374;10.662;2023-04-19T14:16:30;6.87;;;5.00;;
72676;SDS011;60755;51.374;10.662;2023-04-19T14:18:57;6.87;;;4.13;;
72676;SDS011;60755;51.374;10.662;2023-04-19T14:21:25;5.37;;;4.50;;
72676;SDS011;60755;51.374;10.662;2023-04-19T14:23:53;5.90;;;4.80;;
72676;SDS011;60755;51.374;10.662;2023-04-19T14:26:21;7.60;;;5.13;;
72676;SDS011;60755;51.374;10.662;2023-04-19T14:28:49;7.40;;;5.30;;
72676;SDS011;60755;51.374;10.662;2023-04-19T14:31:16;8.43;;;5.37;;
72676;SDS011;60755;51.374;10.662;2023-04-19T14:33:43;8.40;;;6.27;;
72676;SDS011;60755;51.374;10.662;2023-04-19T14:36:11;8.77;;;5.30;;
72676;SDS011;60755;51.374;10.662;2023-04-19T14:38:38;7.57;;;4.80;;
72676;SDS011;60755;51.374;10.662;2023-04-19T14:41:05;5.87;;;4.37;;
72676;SDS011;60755;51.374;10.662;2023-04-19T14:43:34;4.83;;;4.37;;
72676;SDS011;60755;51.374;10.662;2023-04-19T14:46:01;8.20;;;5.43;;
72676;SDS011;60755;51.374;10.662;2023-04-19T14:48:28;32.17;;;16.17;;